Terminal Aerodrome Forecast
Issued by NWS Wilmington, OH

Current Version | Previous Version | Text Only | Print | Product List | Glossary Off
Versions: 1 2 3 4 5 6 7 8 9 10 11 12 13 14 15 16 17 18 19 20

000
FTUS41 KILN 261100
TAFCMH
TAF
KCMH 261134Z 2612/2712 02009KT 5SM -SHRA BR SCT015 OVC050
      TEMPO 2612/2613 2SM -SHRA BR OVC005
     FM261300 35012KT 3SM -SHRA BR SCT005 OVC015
     FM261500 33012G22KT 5SM -SHRA BR OVC018
     FM261700 32010G20KT 5SM BR VCSH BKN025
     FM262300 32014KT P6SM SCT040 BKN100
     FM271000 33008KT P6SM BKN050=

USA.gov is the U.S. government's official web portal to all federal, state and local government web resources and services.